createdAt,value
2022-08-05T00:01:36.124Z,4.00
2022-08-05T00:04:19.555Z,4.10
2022-08-05T00:06:51.709Z,4.35
2022-08-05T00:09:20.248Z,4.07
2022-08-05T00:11:55.549Z,4.45
2022-08-05T00:14:29.037Z,4.15
2022-08-05T00:16:57.814Z,4.65
2022-08-05T00:19:33.459Z,5.03
2022-08-05T00:22:08.238Z,5.00
2022-08-05T00:24:42.452Z,4.95
2022-08-05T00:27:16.618Z,4.85
2022-08-05T00:29:44.918Z,3.97
2022-08-05T00:32:15.363Z,4.18
2022-08-05T00:35:03.701Z,4.03
2022-08-05T00:37:51.267Z,3.70
2022-08-05T00:40:27.506Z,3.88
2022-08-05T00:43:03.031Z,3.75
2022-08-05T00:45:42.756Z,3.97
2022-08-05T00:48:27.670Z,3.53
2022-08-05T00:50:58.914Z,3.80
2022-08-05T00:54:00.330Z,3.92
2022-08-05T00:56:17.205Z,4.32
2022-08-05T00:58:45.311Z,3.92
2022-08-05T01:01:15.408Z,4.20
2022-08-05T01:03:52.648Z,4.43
2022-08-05T01:06:20.299Z,4.20
2022-08-05T01:09:00.561Z,4.43
2022-08-05T01:11:37.829Z,3.90
2022-08-05T01:14:35.470Z,4.72
2022-08-05T01:17:09.733Z,4.00
2022-08-05T01:20:15.429Z,4.40
2022-08-05T01:23:15.136Z,4.13
2022-08-05T01:26:28.798Z,4.63
2022-08-05T01:29:05.313Z,4.45
2022-08-05T01:32:00.566Z,4.47
2022-08-05T01:35:10.956Z,4.47
2022-08-05T01:37:59.342Z,4.13
2022-08-05T01:40:30.845Z,4.50
2022-08-05T01:43:02.614Z,4.57
2022-08-05T01:45:34.729Z,4.57
2022-08-05T01:48:11.065Z,4.93
2022-08-05T01:50:41.158Z,4.55
2022-08-05T01:53:54.889Z,4.68
2022-08-05T01:56:13.965Z,4.25
2022-08-05T01:59:12.273Z,5.35
2022-08-05T02:01:43.018Z,4.32
2022-08-05T02:04:11.976Z,4.78
2022-08-05T02:06:39.854Z,4.38
2022-08-05T02:09:08.439Z,4.25
2022-08-05T02:11:52.605Z,4.32
2022-08-05T02:14:39.496Z,4.25
2022-08-05T02:18:31.993Z,4.28
2022-08-05T02:20:26.320Z,4.20
2022-08-05T02:23:08.712Z,4.20
2022-08-05T02:25:50.220Z,4.70
2022-08-05T02:28:28.483Z,3.83
2022-08-05T02:31:08.286Z,4.30
2022-08-05T02:33:57.495Z,3.92
2022-08-05T02:36:31.629Z,4.10
2022-08-05T02:39:02.242Z,4.20
2022-08-05T02:41:36.450Z,4.47
2022-08-05T02:44:21.992Z,3.83
2022-08-05T02:46:58.487Z,3.55
2022-08-05T02:49:35.797Z,3.80
2022-08-05T02:52:29.435Z,3.72
2022-08-05T02:55:02.078Z,3.90
2022-08-05T03:00:24.784Z,3.38
2022-08-05T03:02:53.719Z,3.78
2022-08-05T03:05:21.951Z,3.80
2022-08-05T03:08:11.304Z,4.22
2022-08-05T03:10:39.002Z,4.00
2022-08-05T03:13:17.704Z,3.83
2022-08-05T03:15:47.348Z,4.40
2022-08-05T03:18:17.277Z,3.92
2022-08-05T03:20:48.736Z,4.38
2022-08-05T03:23:16.765Z,4.45
2022-08-05T03:26:03.623Z,4.32
2022-08-05T03:28:31.902Z,4.70
2022-08-05T03:31:04.164Z,4.88
2022-08-05T03:33:51.333Z,4.40
2022-08-05T03:36:30.293Z,4.72
2022-08-05T03:38:58.678Z,4.28
2022-08-05T03:41:26.065Z,5.18
2022-08-05T03:44:11.389Z,4.50
2022-08-05T03:46:39.375Z,4.70
2022-08-05T03:49:06.860Z,4.70
2022-08-05T03:52:37.588Z,4.15
2022-08-05T03:55:51.765Z,4.53
2022-08-05T03:57:48.806Z,4.45
2022-08-05T04:00:17.269Z,4.50
2022-08-05T04:02:57.719Z,4.50
2022-08-05T04:05:34.703Z,4.63
2022-08-05T04:08:14.633Z,4.78
2022-08-05T04:10:59.358Z,4.55
2022-08-05T04:13:51.035Z,4.30
2022-08-05T04:16:16.594Z,5.43
2022-08-05T04:18:54.768Z,4.43
2022-08-05T04:22:10.360Z,4.78
2022-08-05T04:24:18.672Z,5.50
2022-08-05T04:26:47.119Z,5.82
2022-08-05T04:29:14.426Z,5.78
2022-08-05T04:31:42.993Z,5.00
2022-08-05T04:34:32.968Z,5.07
2022-08-05T04:36:57.603Z,5.28
2022-08-05T04:39:24.971Z,5.43
2022-08-05T04:41:55.314Z,4.47
2022-08-05T04:44:29.256Z,4.53
2022-08-05T04:46:59.774Z,4.85
2022-08-05T04:49:38.522Z,4.63
2022-08-05T04:52:15.982Z,4.90
2022-08-05T04:54:43.262Z,4.60
2022-08-05T04:57:10.665Z,4.72
2022-08-05T04:59:40.489Z,5.20
2022-08-05T05:02:36.496Z,4.60
2022-08-05T05:05:02.771Z,4.25
2022-08-05T05:07:52.777Z,5.07
2022-08-05T05:10:20.333Z,4.95
2022-08-05T05:12:47.621Z,4.43
2022-08-05T05:15:57.576Z,4.35
2022-08-05T05:18:06.526Z,4.40
2022-08-05T05:20:36.233Z,4.40
2022-08-05T05:23:08.451Z,4.50
2022-08-05T05:25:47.843Z,4.60
2022-08-05T05:28:15.195Z,4.47
2022-08-05T05:30:43.033Z,4.88
2022-08-05T05:33:17.720Z,4.05
2022-08-05T05:35:50.841Z,3.83
2022-08-05T05:38:26.839Z,3.70
2022-08-05T05:40:56.883Z,3.63
2022-08-05T05:43:56.872Z,4.03
2022-08-05T05:46:15.624Z,3.70
2022-08-05T05:48:44.626Z,4.47
2022-08-05T05:51:27.871Z,3.75
2022-08-05T05:53:59.501Z,3.70
2022-08-05T05:56:32.407Z,3.85
2022-08-05T05:59:08.215Z,3.50
2022-08-05T06:01:40.704Z,4.60
2022-08-05T06:04:25.044Z,3.88
2022-08-05T06:06:52.498Z,3.92
2022-08-05T06:09:27.427Z,3.67
2022-08-05T06:12:09.534Z,4.07
2022-08-05T06:14:37.281Z,4.30
2022-08-05T06:17:24.365Z,3.92
2022-08-05T06:19:56.733Z,3.53
2022-08-05T06:22:34.365Z,3.55
2022-08-05T06:25:25.281Z,3.65
2022-08-05T06:28:10.999Z,3.67
2022-08-05T06:30:44.174Z,4.40
2022-08-05T06:33:11.450Z,3.78
2022-08-05T06:36:08.209Z,4.30
2022-08-05T06:38:36.558Z,4.40
2022-08-05T06:41:07.856Z,4.13
2022-08-05T06:43:58.581Z,4.15
2022-08-05T06:46:29.898Z,4.40
2022-08-05T06:49:01.201Z,4.35
2022-08-05T06:51:30.716Z,3.92
2022-08-05T06:54:01.833Z,4.00
2022-08-05T06:56:33.416Z,3.75
2022-08-05T06:59:08.386Z,4.15
2022-08-05T07:01:37.202Z,3.67
2022-08-05T07:04:08.261Z,4.90
2022-08-05T07:06:35.600Z,4.40
2022-08-05T07:09:04.772Z,4.10
2022-08-05T07:11:36.887Z,3.58
2022-08-05T07:14:29.694Z,4.00
2022-08-05T07:17:58.409Z,3.70
2022-08-05T07:20:32.190Z,4.10
2022-08-05T07:22:38.358Z,3.80
2022-08-05T07:25:23.803Z,4.00
2022-08-05T07:28:02.264Z,4.35
2022-08-05T07:30:38.893Z,4.00
2022-08-05T07:33:16.378Z,4.47
2022-08-05T07:36:05.388Z,3.47
2022-08-05T07:38:43.442Z,3.50
2022-08-05T07:42:12.864Z,3.53
2022-08-05T07:44:18.398Z,3.90
2022-08-05T07:46:49.740Z,3.58
2022-08-05T07:49:19.077Z,3.30
2022-08-05T07:51:53.591Z,3.50
2022-08-05T07:54:30.239Z,3.63
2022-08-05T07:57:22.456Z,3.08
2022-08-05T07:59:48.782Z,3.08
2022-08-05T08:02:17.836Z,3.00
2022-08-05T08:04:47.429Z,2.80
2022-08-05T08:07:15.412Z,3.33
2022-08-05T08:09:43.526Z,2.63
2022-08-05T08:12:32.004Z,2.58
2022-08-05T08:15:02.422Z,2.42
2022-08-05T08:17:32.830Z,3.08
2022-08-05T08:20:43.615Z,2.40
2022-08-05T08:22:56.978Z,2.50
2022-08-05T08:25:34.595Z,2.85
2022-08-05T08:28:18.945Z,2.60
2022-08-05T08:30:59.485Z,2.70
2022-08-05T08:33:28.281Z,2.70
2022-08-05T08:36:18.510Z,2.83
2022-08-05T08:38:42.842Z,2.60
2022-08-05T08:41:22.313Z,2.47
2022-08-05T08:45:19.287Z,2.50
2022-08-05T08:46:45.353Z,3.35
2022-08-05T08:50:22.826Z,2.60
2022-08-05T08:52:21.745Z,3.10
2022-08-05T08:54:55.287Z,2.80
2022-08-05T08:57:42.130Z,2.67
2022-08-05T09:00:15.740Z,2.80
2022-08-05T09:02:46.761Z,2.60
2022-08-05T09:05:17.399Z,2.97
2022-08-05T09:07:57.645Z,3.20
2022-08-05T09:10:26.980Z,2.70
2022-08-05T09:13:04.859Z,2.80
2022-08-05T09:15:36.766Z,2.97
2022-08-05T09:18:09.024Z,2.97
2022-08-05T09:20:38.386Z,3.20
2022-08-05T09:23:21.940Z,3.30
2022-08-05T09:26:01.630Z,3.03
2022-08-05T09:28:33.506Z,2.97
2022-08-05T09:31:43.286Z,3.20
2022-08-05T09:34:10.366Z,3.25
2022-08-05T09:36:55.667Z,3.40
2022-08-05T09:39:39.563Z,3.80
2022-08-05T09:42:23.919Z,3.67
2022-08-05T09:45:03.241Z,4.60
2022-08-05T09:47:47.984Z,3.72
2022-08-05T09:50:38.843Z,3.80
2022-08-05T09:53:08.909Z,3.30
2022-08-05T09:55:57.384Z,3.75
2022-08-05T09:58:29.149Z,3.70
2022-08-05T10:01:14.895Z,3.10
2022-08-05T10:04:34.861Z,3.78
2022-08-05T10:07:19.505Z,3.25
2022-08-05T10:10:04.308Z,3.60
2022-08-05T10:12:57.508Z,3.38
2022-08-05T10:15:34.536Z,3.28
2022-08-05T10:18:22.373Z,3.63
2022-08-05T10:21:11.960Z,3.40
2022-08-05T10:23:59.987Z,3.22
2022-08-05T10:26:31.589Z,3.03
2022-08-05T10:29:00.304Z,3.85
2022-08-05T10:32:53.843Z,2.90
2022-08-05T10:34:15.102Z,3.03
2022-08-05T10:36:45.161Z,3.42
2022-08-05T10:40:03.888Z,3.40
2022-08-05T10:42:33.310Z,3.13
2022-08-05T10:45:20.825Z,2.78
2022-08-05T10:48:29.835Z,2.63
2022-08-05T10:51:21.769Z,2.97
2022-08-05T10:53:58.512Z,2.58
2022-08-05T10:56:31.391Z,3.00
2022-08-05T10:58:58.662Z,2.75
2022-08-05T11:01:54.487Z,3.20
2022-08-05T11:04:31.023Z,3.00
2022-08-05T11:07:01.680Z,2.60
2022-08-05T11:10:03.816Z,3.10
2022-08-05T11:12:38.162Z,2.75
2022-08-05T11:16:01.172Z,2.70
2022-08-05T11:18:32.437Z,3.20
2022-08-05T11:21:02.010Z,2.65
2022-08-05T11:24:05.601Z,2.45
2022-08-05T11:26:38.647Z,2.80
2022-08-05T11:29:13.752Z,2.63
2022-08-05T11:31:54.212Z,2.40
2022-08-05T11:34:47.646Z,2.50
2022-08-05T11:38:30.467Z,2.72
2022-08-05T11:41:34.679Z,2.83
2022-08-05T11:44:08.076Z,3.15
2022-08-05T11:47:09.467Z,2.70
2022-08-05T11:52:02.074Z,2.55
2022-08-05T11:54:40.309Z,2.85
2022-08-05T11:57:25.242Z,2.50
2022-08-05T11:59:55.095Z,2.38
2022-08-05T12:02:33.013Z,2.80
2022-08-05T12:05:08.088Z,2.53
2022-08-05T12:08:08.133Z,2.35
2022-08-05T12:10:45.133Z,3.25
2022-08-05T12:13:28.058Z,3.13
2022-08-05T12:16:15.384Z,3.00
2022-08-05T12:18:48.928Z,2.55
2022-08-05T12:21:32.007Z,2.80
2022-08-05T12:24:21.302Z,3.10
2022-08-05T12:26:54.127Z,3.08
2022-08-05T12:29:24.212Z,3.00
2022-08-05T12:32:02.040Z,2.85
2022-08-05T12:34:36.867Z,3.25
2022-08-05T12:37:16.923Z,2.60
2022-08-05T12:39:48.694Z,2.85
2022-08-05T12:42:21.367Z,2.80
2022-08-05T12:44:52.774Z,3.43
2022-08-05T12:47:31.059Z,2.83
2022-08-05T12:50:03.870Z,2.88
2022-08-05T12:52:39.246Z,2.72
2022-08-05T12:55:25.334Z,2.75
2022-08-05T12:58:51.005Z,2.60
2022-08-05T13:02:01.453Z,2.83
2022-08-05T13:03:41.968Z,2.95
2022-08-05T13:06:20.018Z,2.80
2022-08-05T13:08:52.316Z,2.97
2022-08-05T13:12:01.275Z,2.70
2022-08-05T13:14:36.107Z,2.95
2022-08-05T13:17:31.543Z,2.88
2022-08-05T13:20:12.504Z,2.92
2022-08-05T13:22:50.194Z,2.65
2022-08-05T13:25:22.179Z,2.90
2022-08-05T13:28:07.729Z,2.92
2022-08-05T13:30:38.922Z,2.97
2022-08-05T13:33:06.554Z,2.80
2022-08-05T13:35:47.624Z,2.70
2022-08-05T13:38:30.669Z,2.95
2022-08-05T13:41:03.764Z,2.55
2022-08-05T13:43:44.650Z,3.08
2022-08-05T13:46:30.655Z,3.35
2022-08-05T13:49:10.131Z,2.55
2022-08-05T13:51:46.558Z,4.25
2022-08-05T13:54:17.102Z,2.58
2022-08-05T13:56:51.115Z,3.30
2022-08-05T13:59:24.564Z,2.80
2022-08-05T14:02:00.022Z,2.70
2022-08-05T14:04:54.984Z,2.80
2022-08-05T14:08:01.223Z,2.83
2022-08-05T14:10:30.670Z,2.60
2022-08-05T14:12:59.401Z,2.70
2022-08-05T14:16:09.128Z,2.50
2022-08-05T14:18:18.641Z,2.72
2022-08-05T14:20:54.505Z,2.53
2022-08-05T14:23:24.687Z,3.25
2022-08-05T14:25:58.991Z,2.65
2022-08-05T14:28:28.692Z,2.63
2022-08-05T14:31:00.991Z,2.67
2022-08-05T14:33:56.387Z,2.50
2022-08-05T14:36:20.481Z,2.30
2022-08-05T14:38:50.673Z,2.60
2022-08-05T14:41:18.558Z,2.53
2022-08-05T14:44:01.473Z,2.60
2022-08-05T14:46:35.182Z,2.55
2022-08-05T14:49:07.492Z,2.58
2022-08-05T14:51:42.497Z,2.60
2022-08-05T14:54:27.501Z,2.30
2022-08-05T14:56:58.910Z,2.60
2022-08-05T14:59:29.621Z,2.38
2022-08-05T15:02:15.040Z,2.40
2022-08-05T15:04:43.788Z,2.30
2022-08-05T15:08:06.460Z,2.50
2022-08-05T15:10:01.365Z,2.50
2022-08-05T15:12:51.331Z,2.80
2022-08-05T15:15:17.926Z,2.42
2022-08-05T15:18:06.027Z,2.40
2022-08-05T15:20:33.829Z,2.50
2022-08-05T15:23:11.081Z,2.28
2022-08-05T15:25:52.839Z,2.38
2022-08-05T15:28:27.033Z,2.10
2022-08-05T15:30:55.521Z,2.20
2022-08-05T15:34:05.658Z,2.30
2022-08-05T15:36:16.803Z,2.30
2022-08-05T15:41:01.992Z,2.08
2022-08-05T15:41:56.455Z,2.30
2022-08-05T15:44:30.278Z,2.63
2022-08-05T15:47:01.509Z,2.40
2022-08-05T15:49:48.216Z,2.53
2022-08-05T15:52:52.045Z,2.30
2022-08-05T15:55:16.012Z,2.17
2022-08-05T15:57:45.109Z,2.15
2022-08-05T16:00:13.699Z,1.83
2022-08-05T16:02:44.592Z,1.98
2022-08-05T16:05:12.545Z,2.38
2022-08-05T16:07:46.205Z,2.35
2022-08-05T16:12:42.113Z,2.40
2022-08-05T16:15:10.420Z,2.60
2022-08-05T16:17:49.727Z,2.70
2022-08-05T16:20:26.243Z,2.95
2022-08-05T16:22:55.468Z,2.65
2022-08-05T16:25:32.292Z,2.88
2022-08-05T16:28:06.004Z,2.95
2022-08-05T16:30:36.205Z,2.80
2022-08-05T16:33:03.997Z,2.78
2022-08-05T16:35:32.414Z,2.55
2022-08-05T16:38:24.585Z,2.45
2022-08-05T16:40:55.172Z,2.30
2022-08-05T16:43:32.070Z,2.45
2022-08-05T16:46:12.708Z,2.65
2022-08-05T16:48:50.799Z,2.30
2022-08-05T16:51:18.813Z,2.55
2022-08-05T16:54:04.738Z,2.70
2022-08-05T16:56:36.274Z,2.50
2022-08-05T16:59:09.079Z,2.33
2022-08-05T17:01:53.283Z,2.20
2022-08-05T17:04:28.234Z,2.60
2022-08-05T17:07:03.418Z,2.70
2022-08-05T17:09:55.988Z,2.53
2022-08-05T17:12:51.916Z,2.60
2022-08-05T17:15:15.793Z,3.10
2022-08-05T17:17:54.448Z,2.67
2022-08-05T17:20:22.554Z,3.00
2022-08-05T17:22:55.331Z,2.90
2022-08-05T17:25:33.884Z,2.75
2022-08-05T17:28:09.110Z,2.70
2022-08-05T17:30:42.392Z,2.70
2022-08-05T17:33:17.867Z,2.72
2022-08-05T17:36:08.111Z,2.53
2022-08-05T17:38:34.408Z,2.72
2022-08-05T17:41:02.369Z,2.70
2022-08-05T17:43:50.562Z,2.53
2022-08-05T17:46:18.281Z,2.70
2022-08-05T17:48:47.690Z,2.38
2022-08-05T17:51:21.784Z,2.70
2022-08-05T17:53:50.898Z,2.50
2022-08-05T17:56:22.772Z,2.58
2022-08-05T17:58:51.146Z,2.20
2022-08-05T18:01:19.841Z,2.67
2022-08-05T18:03:58.494Z,2.40
2022-08-05T18:06:31.633Z,2.55
2022-08-05T18:08:59.679Z,3.08
2022-08-05T18:11:33.003Z,2.58
2022-08-05T18:14:04.275Z,2.67
2022-08-05T18:16:47.038Z,2.75
2022-08-05T18:19:22.879Z,2.72
2022-08-05T18:22:09.354Z,2.80
2022-08-05T18:24:39.955Z,3.10
2022-08-05T18:27:12.604Z,3.15
2022-08-05T18:29:53.528Z,2.83
2022-08-05T18:32:28.179Z,2.67
2022-08-05T18:34:56.872Z,2.42
2022-08-05T18:37:34.065Z,2.83
2022-08-05T18:40:34.546Z,3.08
2022-08-05T18:42:56.961Z,2.88
2022-08-05T18:45:24.816Z,2.90
2022-08-05T18:47:56.740Z,2.83
2022-08-05T18:50:45.176Z,3.35
2022-08-05T18:53:19.154Z,3.25
2022-08-05T18:55:46.607Z,2.72
2022-08-05T18:58:16.364Z,2.55
2022-08-05T19:00:43.996Z,2.60
2022-08-05T19:03:15.535Z,2.42
2022-08-05T19:06:12.180Z,2.40
2022-08-05T19:08:31.252Z,2.60
2022-08-05T19:11:04.523Z,2.45
2022-08-05T19:13:35.700Z,4.57
2022-08-05T19:16:25.057Z,2.70
2022-08-05T19:18:53.525Z,2.90
2022-08-05T19:21:26.024Z,3.40
2022-08-05T19:24:06.054Z,3.70
2022-08-05T19:26:43.787Z,3.63
2022-08-05T19:29:22.923Z,3.65
2022-08-05T19:31:50.985Z,3.80
2022-08-05T19:34:18.863Z,3.70
2022-08-05T19:36:46.164Z,3.30
2022-08-05T19:39:14.669Z,3.42
2022-08-05T19:42:07.158Z,3.90
2022-08-05T19:44:32.094Z,3.60
2022-08-05T19:46:59.718Z,3.70
2022-08-05T19:49:27.031Z,3.45
2022-08-05T19:52:05.462Z,3.78
2022-08-05T19:54:37.214Z,3.80
2022-08-05T19:57:09.681Z,3.70
2022-08-05T20:00:02.128Z,3.88
2022-08-05T20:02:31.449Z,4.15
2022-08-05T20:04:59.771Z,4.10
2022-08-05T20:07:48.237Z,4.07
2022-08-05T20:10:19.447Z,3.42
2022-08-05T20:12:49.838Z,3.67
2022-08-05T20:15:23.261Z,4.13
2022-08-05T20:18:10.861Z,4.10
2022-08-05T20:20:57.153Z,3.95
2022-08-05T20:23:39.552Z,4.55
2022-08-05T20:26:16.547Z,4.70
2022-08-05T20:28:50.351Z,3.90
2022-08-05T20:31:21.609Z,4.03
2022-08-05T20:33:51.685Z,5.63
2022-08-05T20:36:21.790Z,4.38
2022-08-05T20:38:54.611Z,4.63
2022-08-05T20:41:44.040Z,4.28
2022-08-05T20:44:29.071Z,4.00
2022-08-05T20:47:01.045Z,3.97
2022-08-05T20:49:29.082Z,4.10
2022-08-05T20:51:58.021Z,4.90
2022-08-05T20:54:55.537Z,4.32
2022-08-05T20:57:42.678Z,4.63
2022-08-05T21:00:21.065Z,5.38
2022-08-05T21:02:57.708Z,4.90
2022-08-05T21:05:25.166Z,4.45
2022-08-05T21:07:52.587Z,4.25
2022-08-05T21:10:21.560Z,4.30
2022-08-05T21:12:58.039Z,4.38
2022-08-05T21:15:36.800Z,4.22
2022-08-05T21:18:04.603Z,3.92
2022-08-05T21:20:32.758Z,4.50
2022-08-05T21:23:00.679Z,4.25
2022-08-05T21:25:33.807Z,4.28
2022-08-05T21:28:03.232Z,4.25
2022-08-05T21:30:31.578Z,4.22
2022-08-05T21:32:59.727Z,3.92
2022-08-05T21:35:56.020Z,4.10
2022-08-05T21:38:19.131Z,4.20
2022-08-05T21:40:46.382Z,4.20
2022-08-05T21:43:17.711Z,4.28
2022-08-05T21:45:57.453Z,4.20
2022-08-05T21:48:28.949Z,4.80
2022-08-05T21:50:59.723Z,5.32
2022-08-05T21:53:27.832Z,4.82
2022-08-05T21:56:05.896Z,4.80
2022-08-05T21:58:57.081Z,4.82
2022-08-05T22:01:26.451Z,4.40
2022-08-05T22:03:54.052Z,4.50
2022-08-05T22:06:36.972Z,4.07
2022-08-05T22:09:13.375Z,4.63
2022-08-05T22:11:47.074Z,4.47
2022-08-05T22:14:33.698Z,4.40
2022-08-05T22:17:04.971Z,4.05
2022-08-05T22:20:00.832Z,4.15
2022-08-05T22:22:27.375Z,4.55
2022-08-05T22:25:24.000Z,4.80
2022-08-05T22:28:09.109Z,4.63
2022-08-05T22:30:43.951Z,4.25
2022-08-05T22:33:57.228Z,4.88
2022-08-05T22:36:14.890Z,4.72
2022-08-05T22:38:48.082Z,4.80
2022-08-05T22:41:26.369Z,4.75
2022-08-05T22:44:08.611Z,4.95
2022-08-05T22:46:39.884Z,4.90
2022-08-05T22:49:23.643Z,4.50
2022-08-05T22:52:04.811Z,4.60
2022-08-05T22:54:36.566Z,4.70
2022-08-05T22:57:06.528Z,4.30
2022-08-05T22:59:48.520Z,4.40
2022-08-05T23:02:29.463Z,4.25
2022-08-05T23:05:01.910Z,4.63
2022-08-05T23:07:43.757Z,4.13
2022-08-05T23:10:14.157Z,4.72
2022-08-05T23:12:43.785Z,4.55
2022-08-05T23:15:12.047Z,4.90
2022-08-05T23:18:01.458Z,4.97
2022-08-05T23:20:26.840Z,4.43
2022-08-05T23:22:55.815Z,4.45
2022-08-05T23:25:52.569Z,5.15
2022-08-05T23:28:12.809Z,4.45
2022-08-05T23:30:44.027Z,4.57
2022-08-05T23:33:26.466Z,5.03
2022-08-05T23:36:10.805Z,4.75
2022-08-05T23:38:42.849Z,4.88
2022-08-05T23:41:11.267Z,4.72
2022-08-05T23:44:04.737Z,4.93
2022-08-05T23:46:26.203Z,5.00
2022-08-05T23:49:00.035Z,5.05
2022-08-05T23:51:55.035Z,5.43
2022-08-05T23:54:30.220Z,5.63
2022-08-05T23:57:03.741Z,5.45
